createdAt,value
2023-05-05T00:00:00.414Z,101949.34
2023-05-05T00:02:28.462Z,101952.28
2023-05-05T00:04:56.510Z,101953.28
2023-05-05T00:07:24.388Z,101955.13
2023-05-05T00:09:52.240Z,101954.69
2023-05-05T00:12:21.704Z,101956.69
2023-05-05T00:14:49.984Z,101956.03
2023-05-05T00:17:18.187Z,101952.09
2023-05-05T00:19:46.324Z,101947.91
2023-05-05T00:22:14.234Z,101952.44
2023-05-05T00:24:42.190Z,101954.16
2023-05-05T00:27:10.222Z,101945.94
2023-05-05T00:29:39.459Z,101951.63
2023-05-05T00:32:07.426Z,101951.28
2023-05-05T00:34:35.348Z,101948.81
2023-05-05T00:37:04.071Z,101935.38
2023-05-05T00:39:33.262Z,101936.19
2023-05-05T00:42:01.230Z,101935.00
2023-05-05T00:44:39.287Z,101930.09
2023-05-05T00:47:10.012Z,101931.78
2023-05-05T00:49:39.412Z,101921.22
2023-05-05T00:52:07.789Z,101933.84
2023-05-05T00:54:36.497Z,101935.09
2023-05-05T00:57:04.712Z,101941.44
2023-05-05T00:59:34.743Z,101930.34
2023-05-05T01:02:02.801Z,101931.53
2023-05-05T01:04:32.105Z,101923.16
2023-05-05T01:07:09.042Z,101920.84
2023-05-05T01:09:43.226Z,101925.44
2023-05-05T01:12:21.900Z,101923.72
2023-05-05T01:14:58.678Z,101916.94
2023-05-05T01:17:40.430Z,101925.75
2023-05-05T01:20:20.858Z,101916.00
2023-05-05T01:22:55.010Z,101915.00
2023-05-05T01:25:42.723Z,101900.94
2023-05-05T01:28:29.216Z,101911.59
2023-05-05T01:31:23.073Z,101911.38
2023-05-05T01:33:59.388Z,101909.59
2023-05-05T01:36:33.882Z,101907.91
2023-05-05T01:39:04.029Z,101915.91
2023-05-05T01:41:38.181Z,101910.50
2023-05-05T01:44:08.522Z,101913.72
2023-05-05T01:46:37.769Z,101906.31
2023-05-05T01:49:09.996Z,101909.19
2023-05-05T01:51:40.683Z,101908.22
2023-05-05T01:54:10.442Z,101906.13
2023-05-05T01:56:41.251Z,101906.84
2023-05-05T01:59:10.703Z,101904.25
2023-05-05T02:01:44.720Z,101900.94
2023-05-05T02:04:16.246Z,101893.72
2023-05-05T02:06:45.636Z,101895.38
2023-05-05T02:09:15.277Z,101895.09
2023-05-05T02:11:43.877Z,101890.84
2023-05-05T02:14:13.002Z,101890.84
2023-05-05T02:16:42.433Z,101889.31
2023-05-05T02:19:10.686Z,101888.66
2023-05-05T02:21:40.375Z,101884.25
2023-05-05T02:24:09.036Z,101879.31
2023-05-05T02:26:40.390Z,101883.44
2023-05-05T02:29:10.648Z,101881.97
2023-05-05T02:31:44.822Z,101882.84
2023-05-05T02:34:14.618Z,101872.53
2023-05-05T02:36:45.788Z,101873.19
2023-05-05T02:39:22.554Z,101866.38
2023-05-05T02:41:53.743Z,101869.84
2023-05-05T02:44:25.772Z,101863.88
2023-05-05T02:46:55.353Z,101866.41
2023-05-05T02:49:23.317Z,101860.91
2023-05-05T02:51:52.668Z,101864.94
2023-05-05T02:54:20.804Z,101865.59
2023-05-05T02:56:51.005Z,101860.25
2023-05-05T02:59:28.013Z,101864.72
2023-05-05T03:02:04.468Z,101861.22
2023-05-05T03:04:39.547Z,101854.19
2023-05-05T03:07:14.385Z,101855.59
2023-05-05T03:09:48.031Z,101851.84
2023-05-05T03:12:21.800Z,101849.09
2023-05-05T03:14:53.536Z,101842.72
2023-05-05T03:17:22.733Z,101838.69
2023-05-05T03:19:51.899Z,101845.00
2023-05-05T03:22:21.453Z,101852.75
2023-05-05T03:24:51.627Z,101853.25
2023-05-05T03:27:20.424Z,101836.66
2023-05-05T03:29:48.374Z,101842.47
2023-05-05T03:32:17.743Z,101837.22
2023-05-05T03:34:45.642Z,101838.06
2023-05-05T03:37:13.726Z,101834.88
2023-05-05T03:39:43.064Z,101821.47
2023-05-05T03:42:10.971Z,101827.28
2023-05-05T03:44:38.882Z,101814.88
2023-05-05T03:47:07.042Z,101817.94
2023-05-05T03:49:35.005Z,101817.75
2023-05-05T03:52:03.133Z,101817.06
2023-05-05T03:54:31.277Z,101818.56
2023-05-05T03:57:00.587Z,101830.88
2023-05-05T03:59:28.938Z,101833.91
2023-05-05T04:01:56.914Z,101835.38
2023-05-05T04:04:24.981Z,101840.94
2023-05-05T04:06:52.917Z,101835.13
2023-05-05T04:09:20.822Z,101842.94
2023-05-05T04:11:48.755Z,101838.44
2023-05-05T04:14:18.218Z,101833.00
2023-05-05T04:16:46.102Z,101829.88
2023-05-05T04:19:14.220Z,101825.47
2023-05-05T04:21:42.479Z,101823.59
2023-05-05T04:24:10.372Z,101823.75
2023-05-05T04:26:38.197Z,101826.34
2023-05-05T04:29:06.095Z,101834.81
2023-05-05T04:31:35.388Z,101833.53
2023-05-05T04:34:03.467Z,101833.72
2023-05-05T04:36:32.463Z,101832.19
2023-05-05T04:39:00.415Z,101830.34
2023-05-05T04:41:30.100Z,101835.88
2023-05-05T04:43:58.307Z,101829.22
2023-05-05T04:46:26.456Z,101837.31
2023-05-05T04:48:55.771Z,101837.41
2023-05-05T04:51:23.708Z,101829.31
2023-05-05T04:53:51.962Z,101831.00
2023-05-05T04:56:19.849Z,101835.38
2023-05-05T04:58:47.871Z,101839.41
2023-05-05T05:01:15.837Z,101844.72
2023-05-05T05:03:44.009Z,101843.84
2023-05-05T05:06:13.372Z,101842.53
2023-05-05T05:08:41.279Z,101852.47
2023-05-05T05:11:09.354Z,101862.06
2023-05-05T05:13:37.357Z,101852.94
2023-05-05T05:16:05.601Z,101842.91
2023-05-05T05:18:33.690Z,101813.84
2023-05-05T05:21:01.585Z,101828.56
2023-05-05T05:23:33.320Z,101832.97
2023-05-05T05:26:01.317Z,101836.16
2023-05-05T05:28:29.361Z,101828.16
2023-05-05T05:30:57.227Z,101829.69
2023-05-05T05:33:25.239Z,101834.59
2023-05-05T05:35:53.111Z,101825.38
2023-05-05T05:38:21.018Z,101836.75
2023-05-05T05:40:50.659Z,101833.69
2023-05-05T05:43:18.498Z,101827.94
2023-05-05T05:45:46.442Z,101837.00
2023-05-05T05:48:14.338Z,101836.53
2023-05-05T05:50:42.439Z,101835.75
2023-05-05T05:53:10.347Z,101843.59
2023-05-05T05:55:38.306Z,101848.06
2023-05-05T05:58:07.656Z,101848.78
2023-05-05T06:00:35.534Z,101851.69
2023-05-05T06:03:03.531Z,101856.38
2023-05-05T06:05:32.322Z,101860.56
2023-05-05T06:08:00.182Z,101838.91
2023-05-05T06:10:28.618Z,101843.75
2023-05-05T06:12:56.660Z,101834.03
2023-05-05T06:15:26.468Z,101846.97
2023-05-05T06:17:54.604Z,101833.63
2023-05-05T06:20:22.518Z,101833.31
2023-05-05T06:22:50.394Z,101834.94
2023-05-05T06:25:18.636Z,101824.56
2023-05-05T06:27:46.545Z,101815.13
2023-05-05T06:30:15.745Z,101815.38
2023-05-05T06:32:45.263Z,101823.47
2023-05-05T06:35:13.286Z,101838.09
2023-05-05T06:37:41.223Z,101826.22
2023-05-05T06:40:10.709Z,101829.06
2023-05-05T06:42:38.746Z,101824.06
2023-05-05T06:45:07.672Z,101829.63
2023-05-05T06:47:36.253Z,101816.72
2023-05-05T06:50:06.389Z,101816.00
2023-05-05T06:52:34.480Z,101808.72
2023-05-05T06:55:03.886Z,101799.72
2023-05-05T06:57:31.788Z,101801.88
2023-05-05T06:59:59.771Z,101811.28
2023-05-05T07:02:27.842Z,101815.03
2023-05-05T07:04:56.407Z,101815.38
2023-05-05T07:07:26.975Z,101814.38
2023-05-05T07:09:54.892Z,101814.41
2023-05-05T07:12:22.891Z,101808.97
2023-05-05T07:14:50.840Z,101798.13
2023-05-05T07:17:18.784Z,101814.25
2023-05-05T07:19:50.831Z,101811.88
2023-05-05T07:22:18.767Z,101831.97
2023-05-05T07:24:49.756Z,101849.22
2023-05-05T07:27:18.321Z,101839.81
2023-05-05T07:29:46.357Z,101832.97
2023-05-05T07:32:14.804Z,101837.47
2023-05-05T07:34:42.650Z,101833.66
2023-05-05T07:37:10.702Z,101841.34
2023-05-05T07:39:38.716Z,101846.13
2023-05-05T07:42:08.307Z,101858.56
2023-05-05T07:44:36.244Z,101862.84
2023-05-05T07:47:04.726Z,101863.41
2023-05-05T07:49:32.881Z,101870.59
2023-05-05T07:52:00.791Z,101874.34
2023-05-05T07:54:29.103Z,101874.41
2023-05-05T07:56:57.362Z,101870.81
2023-05-05T07:59:26.652Z,101869.91
2023-05-05T08:01:55.077Z,101873.84
2023-05-05T08:04:23.002Z,101881.34
2023-05-05T08:06:50.959Z,101883.38
2023-05-05T08:09:19.154Z,101875.97
2023-05-05T08:11:47.135Z,101874.25
2023-05-05T08:14:15.295Z,101870.69
2023-05-05T08:16:44.626Z,101868.78
2023-05-05T08:19:25.245Z,101875.81
2023-05-05T08:21:56.462Z,101874.88
2023-05-05T08:24:24.361Z,101870.09
2023-05-05T08:26:52.171Z,101863.44
2023-05-05T08:29:20.285Z,101874.03
2023-05-05T08:31:49.737Z,101858.00
2023-05-05T08:34:17.636Z,101888.97
2023-05-05T08:36:45.601Z,101872.91
2023-05-05T08:39:13.450Z,101854.94
2023-05-05T08:41:41.611Z,101853.75
2023-05-05T08:44:10.125Z,101849.28
2023-05-05T08:46:39.488Z,101839.53
2023-05-05T08:49:11.547Z,101835.16
2023-05-05T08:51:44.343Z,101826.03
2023-05-05T08:54:19.097Z,101820.63
2023-05-05T08:56:50.967Z,101820.91
2023-05-05T08:59:20.296Z,101812.31
2023-05-05T09:01:49.154Z,101816.13
2023-05-05T09:04:19.278Z,101804.63
2023-05-05T09:06:47.437Z,101803.44
2023-05-05T09:09:15.876Z,101806.38
2023-05-05T09:11:46.121Z,101810.03
2023-05-05T09:14:14.405Z,101809.84
2023-05-05T09:16:44.499Z,101810.03
2023-05-05T09:19:12.403Z,101809.22
2023-05-05T09:21:49.837Z,101815.41
2023-05-05T09:24:18.675Z,101805.53
2023-05-05T09:26:48.279Z,101799.28
2023-05-05T09:29:19.905Z,101807.91
2023-05-05T09:32:05.449Z,101811.25
2023-05-05T09:34:38.343Z,101797.25
2023-05-05T09:37:07.711Z,101809.13
2023-05-05T09:39:35.581Z,101802.75
2023-05-05T09:42:03.885Z,101802.09
2023-05-05T09:44:36.036Z,101789.91
2023-05-05T09:47:09.401Z,101800.75
2023-05-05T09:49:43.096Z,101797.25
2023-05-05T09:52:16.192Z,101800.16
2023-05-05T09:54:45.377Z,101802.59
2023-05-05T09:57:28.015Z,101791.44
2023-05-05T10:00:00.582Z,101791.81
2023-05-05T10:02:33.961Z,101776.75
2023-05-05T10:05:10.134Z,101769.09
2023-05-05T10:07:41.761Z,101767.84
2023-05-05T10:10:12.084Z,101758.78
2023-05-05T10:12:41.198Z,101770.94
2023-05-05T10:15:11.016Z,101762.75
2023-05-05T10:18:02.471Z,101755.38
2023-05-05T10:20:34.573Z,101778.56
2023-05-05T10:23:09.273Z,101760.44
2023-05-05T10:25:42.870Z,101767.19
2023-05-05T10:28:17.911Z,101760.31
2023-05-05T10:30:50.380Z,101754.94
2023-05-05T10:35:55.575Z,101764.53
2023-05-05T10:38:27.635Z,101766.22
2023-05-05T10:40:57.364Z,101765.41
2023-05-05T10:43:26.126Z,101763.38
2023-05-05T10:45:55.259Z,101776.25
2023-05-05T10:48:30.005Z,101771.81
2023-05-05T10:51:03.238Z,101779.19
2023-05-05T10:53:37.793Z,101781.97
2023-05-05T10:56:12.371Z,101783.34
2023-05-05T10:58:58.480Z,101780.75
2023-05-05T11:01:32.698Z,101790.78
2023-05-05T11:04:19.969Z,101779.84
2023-05-05T11:07:27.155Z,101772.34
2023-05-05T11:10:01.612Z,101762.16
2023-05-05T11:12:31.740Z,101764.59
2023-05-05T11:15:37.485Z,101756.50
2023-05-05T11:18:08.402Z,101743.84
2023-05-05T11:21:18.197Z,101740.63
2023-05-05T11:23:50.904Z,101738.81
2023-05-05T11:26:50.250Z,101729.94
2023-05-05T11:29:18.300Z,101732.91
2023-05-05T11:31:47.838Z,101735.34
2023-05-05T11:34:29.674Z,101733.16
2023-05-05T11:37:04.171Z,101720.91
2023-05-05T11:39:43.819Z,101722.72
2023-05-05T11:42:28.707Z,101734.69
2023-05-05T11:44:57.183Z,101714.75
2023-05-05T11:47:32.520Z,101712.31
2023-05-05T11:50:17.511Z,101712.91
2023-05-05T11:52:45.862Z,101729.72
2023-05-05T11:55:14.057Z,101734.41
2023-05-05T11:57:43.660Z,101740.09
2023-05-05T12:00:12.667Z,101730.84
2023-05-05T12:02:40.719Z,101738.31
2023-05-05T12:05:09.892Z,101724.81
2023-05-05T12:07:37.863Z,101725.31
2023-05-05T12:10:06.586Z,101724.19
2023-05-05T12:12:37.031Z,101724.09
2023-05-05T12:15:10.170Z,101722.13
2023-05-05T12:17:43.900Z,101708.63
2023-05-05T12:20:13.685Z,101711.06
2023-05-05T12:22:42.037Z,101709.34
2023-05-05T12:25:13.636Z,101698.06
2023-05-05T12:27:42.626Z,101700.63
2023-05-05T12:30:18.258Z,101693.84
2023-05-05T12:32:47.246Z,101696.69
2023-05-05T12:35:16.047Z,101697.94
2023-05-05T12:37:44.962Z,101693.38
2023-05-05T12:40:45.159Z,101690.22
2023-05-05T12:43:28.716Z,101693.38
2023-05-05T12:46:05.996Z,101699.28
2023-05-05T12:48:34.508Z,101699.28
2023-05-05T12:51:20.007Z,101706.50
2023-05-05T12:53:49.134Z,101704.69
2023-05-05T12:56:38.442Z,101701.38
2023-05-05T12:59:09.293Z,101698.66
2023-05-05T13:01:50.628Z,101699.38
2023-05-05T13:04:19.547Z,101697.53
2023-05-05T13:06:48.704Z,101700.44
2023-05-05T13:09:27.784Z,101702.94
2023-05-05T13:11:59.524Z,101697.94
2023-05-05T13:14:27.876Z,101686.56
2023-05-05T13:16:58.049Z,101681.78
2023-05-05T13:19:28.045Z,101693.47
2023-05-05T13:21:58.154Z,101681.97
2023-05-05T13:24:42.210Z,101686.22
2023-05-05T13:27:15.828Z,101674.75
2023-05-05T13:29:43.957Z,101689.88
2023-05-05T13:32:16.675Z,101693.31
2023-05-05T13:34:44.650Z,101679.97
2023-05-05T13:37:12.594Z,101684.94
2023-05-05T13:39:40.784Z,101675.47
2023-05-05T13:42:08.860Z,101677.84
2023-05-05T13:44:37.631Z,101687.66
2023-05-05T13:47:06.648Z,101672.44
2023-05-05T13:49:39.512Z,101679.97
2023-05-05T13:52:10.822Z,101671.50
2023-05-05T13:54:38.742Z,101671.25
2023-05-05T13:57:08.061Z,101667.78
2023-05-05T13:59:36.148Z,101660.34
2023-05-05T14:02:04.236Z,101655.50
2023-05-05T14:04:32.472Z,101648.19
2023-05-05T14:07:02.183Z,101639.94
2023-05-05T14:09:30.495Z,101646.81
2023-05-05T14:12:02.490Z,101638.41
2023-05-05T14:14:30.760Z,101631.72
2023-05-05T14:16:59.102Z,101640.38
2023-05-05T14:19:27.720Z,101631.50
2023-05-05T14:21:55.690Z,101635.81
2023-05-05T14:24:25.407Z,101652.88
2023-05-05T14:26:53.775Z,101633.97
2023-05-05T14:29:21.791Z,101636.59
2023-05-05T14:31:52.094Z,101640.63
2023-05-05T14:34:21.065Z,101637.28
2023-05-05T14:36:49.761Z,101641.03
2023-05-05T14:39:19.670Z,101627.69
2023-05-05T14:41:49.268Z,101639.06
2023-05-05T14:44:17.220Z,101627.53
2023-05-05T14:46:46.338Z,101621.13
2023-05-05T14:49:15.052Z,101620.22
2023-05-05T14:51:43.130Z,101622.44
2023-05-05T14:54:24.201Z,101626.41
2023-05-05T14:56:58.464Z,101624.41
2023-05-05T14:59:27.598Z,101628.25
2023-05-05T15:01:56.180Z,101630.50
2023-05-05T15:04:24.221Z,101624.91
2023-05-05T15:06:52.766Z,101627.84
2023-05-05T15:09:20.709Z,101623.91
2023-05-05T15:11:48.884Z,101622.59
2023-05-05T15:14:18.385Z,101616.75
2023-05-05T15:16:46.824Z,101618.75
2023-05-05T15:19:15.045Z,101610.44
2023-05-05T15:21:44.813Z,101616.84
2023-05-05T15:24:15.231Z,101606.34
2023-05-05T15:26:43.301Z,101601.13
2023-05-05T15:29:11.305Z,101592.44
2023-05-05T15:31:43.958Z,101591.06
2023-05-05T15:34:12.276Z,101586.69
2023-05-05T15:36:40.157Z,101580.91
2023-05-05T15:39:14.169Z,101587.03
2023-05-05T15:41:42.065Z,101582.91
2023-05-05T15:44:13.115Z,101587.72
2023-05-05T15:46:42.720Z,101588.91
2023-05-05T15:49:10.758Z,101587.63
2023-05-05T15:51:40.291Z,101589.09
2023-05-05T15:54:08.263Z,101591.47
2023-05-05T15:56:40.340Z,101592.25
2023-05-05T15:59:08.731Z,101589.53
2023-05-05T16:01:36.961Z,101584.66
2023-05-05T16:04:06.663Z,101581.56
2023-05-05T16:06:36.064Z,101580.03
2023-05-05T16:09:04.937Z,101575.41
2023-05-05T16:11:32.928Z,101575.78
2023-05-05T16:14:01.476Z,101576.47
2023-05-05T16:16:29.415Z,101571.56
2023-05-05T16:18:57.500Z,101579.28
2023-05-05T16:21:27.613Z,101577.09
2023-05-05T16:23:55.780Z,101582.09
2023-05-05T16:26:23.663Z,101586.31
2023-05-05T16:28:52.367Z,101577.31
2023-05-05T16:31:20.703Z,101588.94
2023-05-05T16:33:48.703Z,101587.66
2023-05-05T16:36:20.853Z,101588.28
2023-05-05T16:38:51.127Z,101598.84
2023-05-05T16:41:19.270Z,101604.97
2023-05-05T16:43:50.617Z,101597.44
2023-05-05T16:46:18.918Z,101606.56
2023-05-05T16:48:47.050Z,101603.34
2023-05-05T16:51:15.304Z,101606.16
2023-05-05T16:53:46.619Z,101614.56
2023-05-05T16:56:17.410Z,101607.22
2023-05-05T16:58:45.337Z,101619.72
2023-05-05T17:01:13.491Z,101618.94
2023-05-05T17:03:41.939Z,101616.03
2023-05-05T17:06:09.854Z,101614.09
2023-05-05T17:08:37.765Z,101619.22
2023-05-05T17:11:06.243Z,101629.31
2023-05-05T17:13:38.593Z,101626.78
2023-05-05T17:16:07.212Z,101625.75
2023-05-05T17:18:37.745Z,101621.41
2023-05-05T17:21:06.323Z,101619.16
2023-05-05T17:23:34.525Z,101621.41
2023-05-05T17:26:05.648Z,101615.75
2023-05-05T17:28:35.256Z,101632.91
2023-05-05T17:31:08.904Z,101623.38
2023-05-05T17:33:37.194Z,101619.81
2023-05-05T17:36:09.954Z,101609.25
2023-05-05T17:38:37.949Z,101612.16
2023-05-05T17:41:06.423Z,101610.22
2023-05-05T17:43:36.104Z,101611.91
2023-05-05T17:46:04.073Z,101609.72
2023-05-05T17:48:32.172Z,101617.19
2023-05-05T17:51:00.208Z,101623.13
2023-05-05T17:53:28.818Z,101623.22
2023-05-05T17:55:56.737Z,101622.66
2023-05-05T17:58:24.984Z,101631.81
2023-05-05T18:00:54.733Z,101632.13
2023-05-05T18:03:22.833Z,101638.72
2023-05-05T18:05:51.061Z,101646.38
2023-05-05T18:08:20.027Z,101653.56
2023-05-05T18:10:48.153Z,101654.34
2023-05-05T18:13:16.334Z,101663.91
2023-05-05T18:15:44.442Z,101667.47
2023-05-05T18:18:16.324Z,101666.72
2023-05-05T18:20:44.804Z,101669.34
2023-05-05T18:23:13.737Z,101676.69
2023-05-05T18:25:42.301Z,101672.66
2023-05-05T18:28:12.423Z,101675.06
2023-05-05T18:30:41.018Z,101666.22
2023-05-05T18:33:10.930Z,101666.81
2023-05-05T18:35:40.577Z,101675.91
2023-05-05T18:38:09.258Z,101676.88
2023-05-05T18:40:39.806Z,101675.56
2023-05-05T18:43:07.947Z,101677.44
2023-05-05T18:45:42.424Z,101682.06
2023-05-05T18:48:12.118Z,101682.50
2023-05-05T18:50:44.854Z,101693.88
2023-05-05T18:53:14.922Z,101698.53
2023-05-05T18:55:47.239Z,101696.22
2023-05-05T18:58:16.912Z,101698.38
2023-05-05T19:00:44.802Z,101698.72
2023-05-05T19:03:12.800Z,101700.47
2023-05-05T19:05:49.890Z,101707.09
2023-05-05T19:08:17.809Z,101708.81
2023-05-05T19:10:46.316Z,101720.22
2023-05-05T19:13:14.447Z,101715.56
2023-05-05T19:15:42.848Z,101717.31
2023-05-05T19:18:12.148Z,101717.38
2023-05-05T19:20:43.833Z,101718.75
2023-05-05T19:23:13.930Z,101728.00
2023-05-05T19:25:42.161Z,101729.41
2023-05-05T19:28:13.876Z,101731.63
2023-05-05T19:30:41.823Z,101724.03
2023-05-05T19:33:10.462Z,101721.38
2023-05-05T19:35:38.597Z,101720.75
2023-05-05T19:38:12.959Z,101723.06
2023-05-05T19:40:42.310Z,101719.88
2023-05-05T19:43:11.489Z,101722.47
2023-05-05T19:45:39.591Z,101718.31
2023-05-05T19:48:10.418Z,101717.69
2023-05-05T19:50:38.351Z,101720.88
2023-05-05T19:53:07.683Z,101718.19
2023-05-05T19:55:35.868Z,101714.47
2023-05-05T19:58:07.028Z,101711.66
2023-05-05T20:00:34.942Z,101722.09
2023-05-05T20:03:03.296Z,101711.66
2023-05-05T20:05:31.548Z,101708.03
2023-05-05T20:07:59.483Z,101706.81
2023-05-05T20:10:29.002Z,101700.09
2023-05-05T20:12:57.293Z,101704.13
2023-05-05T20:15:25.492Z,101701.84
2023-05-05T20:17:53.929Z,101711.13
2023-05-05T20:20:23.926Z,101697.91
2023-05-05T20:22:52.192Z,101693.63
2023-05-05T20:25:20.224Z,101700.28
2023-05-05T20:27:49.608Z,101684.88
2023-05-05T20:30:17.591Z,101686.53
2023-05-05T20:32:45.762Z,101682.53
2023-05-05T20:35:13.865Z,101678.56
2023-05-05T20:37:41.846Z,101666.88
2023-05-05T20:40:12.186Z,101668.38
2023-05-05T20:42:40.594Z,101668.06
2023-05-05T20:45:15.097Z,101667.16
2023-05-05T20:47:42.924Z,101663.81
2023-05-05T20:50:12.504Z,101657.63
2023-05-05T20:52:40.728Z,101662.84
2023-05-05T20:55:13.387Z,101660.63
2023-05-05T20:57:41.341Z,101657.69
2023-05-05T21:00:12.598Z,101666.41
2023-05-05T21:02:40.706Z,101650.25
2023-05-05T21:05:10.363Z,101643.66
2023-05-05T21:07:38.619Z,101645.97
2023-05-05T21:10:11.150Z,101642.84
2023-05-05T21:12:39.464Z,101638.16
2023-05-05T21:15:10.862Z,101642.06
2023-05-05T21:17:40.509Z,101640.63
2023-05-05T21:20:10.564Z,101649.63
2023-05-05T21:22:38.715Z,101650.50
2023-05-05T21:25:14.120Z,101646.81
2023-05-05T21:27:42.143Z,101644.75
2023-05-05T21:30:14.321Z,101651.06
2023-05-05T21:32:44.293Z,101661.25
2023-05-05T21:35:12.321Z,101655.75
2023-05-05T21:37:40.661Z,101643.31
2023-05-05T21:40:13.539Z,101653.44
2023-05-05T21:42:42.831Z,101649.72
2023-05-05T21:45:12.303Z,101634.50
2023-05-05T21:47:40.452Z,101633.13
2023-05-05T21:50:12.353Z,101640.78
2023-05-05T21:52:41.071Z,101644.00
2023-05-05T21:55:11.020Z,101641.34
2023-05-05T21:57:39.113Z,101644.09
2023-05-05T22:00:09.088Z,101654.88
2023-05-05T22:02:37.185Z,101656.88
2023-05-05T22:05:06.223Z,101657.53
2023-05-05T22:07:35.586Z,101667.47
2023-05-05T22:10:03.822Z,101668.19
2023-05-05T22:12:31.974Z,101668.94
2023-05-05T22:14:59.911Z,101671.88
2023-05-05T22:17:27.964Z,101665.84
2023-05-05T22:19:56.196Z,101661.31
2023-05-05T22:22:24.254Z,101668.03
2023-05-05T22:24:53.790Z,101666.03
2023-05-05T22:27:22.056Z,101656.88
2023-05-05T22:29:50.110Z,101664.00
2023-05-05T22:32:18.294Z,101663.97
2023-05-05T22:34:46.259Z,101671.72
2023-05-05T22:37:17.631Z,101669.69
2023-05-05T22:39:45.514Z,101671.38
2023-05-05T22:42:16.438Z,101665.78
2023-05-05T22:44:44.347Z,101663.13
2023-05-05T22:47:13.200Z,101667.31
2023-05-05T22:49:41.649Z,101669.78
2023-05-05T22:52:09.593Z,101653.00
2023-05-05T22:54:37.932Z,101672.88
2023-05-05T22:57:05.999Z,101661.66
2023-05-05T22:59:35.405Z,101659.56
2023-05-05T23:02:04.200Z,101661.19
2023-05-05T23:04:32.337Z,101658.38
2023-05-05T23:07:00.324Z,101659.41
2023-05-05T23:09:28.334Z,101662.63
2023-05-05T23:11:56.902Z,101665.75
2023-05-05T23:14:24.838Z,101658.53
2023-05-05T23:16:54.230Z,101656.41
2023-05-05T23:19:22.182Z,101664.81
2023-05-05T23:21:53.515Z,101657.63
2023-05-05T23:24:21.690Z,101670.59
2023-05-05T23:26:49.679Z,101669.72
2023-05-05T23:29:17.560Z,101661.69
2023-05-05T23:31:46.189Z,101662.75
2023-05-05T23:34:16.309Z,101657.34
2023-05-05T23:36:44.485Z,101667.81
2023-05-05T23:39:12.466Z,101656.75
2023-05-05T23:41:40.483Z,101666.66
2023-05-05T23:44:08.375Z,101670.41
2023-05-05T23:46:36.349Z,101669.94
2023-05-05T23:49:04.734Z,101665.63
2023-05-05T23:51:33.957Z,101669.81
2023-05-05T23:54:01.948Z,101654.88
2023-05-05T23:56:30.301Z,101665.00
2023-05-05T23:58:58.189Z,101663.84
